createdAt,value
2023-03-11T00:00:34.269Z,61.29
2023-03-11T00:03:23.371Z,61.47
2023-03-11T00:06:09.166Z,61.20
2023-03-11T00:08:55.068Z,61.28
2023-03-11T00:11:41.006Z,60.91
2023-03-11T00:14:26.989Z,61.21
2023-03-11T00:17:12.876Z,61.41
2023-03-11T00:19:58.839Z,61.35
2023-03-11T00:22:44.662Z,61.04
2023-03-11T00:25:32.717Z,61.13
2023-03-11T00:28:18.971Z,61.26
2023-03-11T00:31:05.295Z,61.06
2023-03-11T00:33:51.316Z,61.21
2023-03-11T00:36:37.099Z,61.25
2023-03-11T00:39:23.345Z,61.05
2023-03-11T00:42:09.180Z,61.40
2023-03-11T00:44:55.204Z,61.01
2023-03-11T00:47:41.428Z,61.11
2023-03-11T00:50:33.854Z,61.08
2023-03-11T00:53:20.056Z,61.12
2023-03-11T00:56:10.641Z,60.91
2023-03-11T00:58:58.122Z,61.11
2023-03-11T01:01:44.092Z,61.10
2023-03-11T01:04:30.195Z,61.32
2023-03-11T01:07:16.335Z,60.83
2023-03-11T01:10:02.714Z,61.13
2023-03-11T01:12:48.931Z,61.05
2023-03-11T01:15:37.118Z,61.15
2023-03-11T01:18:22.880Z,61.10
2023-03-11T01:21:08.737Z,60.94
2023-03-11T01:23:54.483Z,60.89
2023-03-11T01:26:40.256Z,61.19
2023-03-11T01:29:26.387Z,61.25
2023-03-11T01:32:12.358Z,61.15
2023-03-11T01:34:58.680Z,60.97
2023-03-11T01:37:46.256Z,60.98
2023-03-11T01:40:43.350Z,61.17
2023-03-11T01:43:41.892Z,61.19
2023-03-11T01:46:53.885Z,61.14
2023-03-11T01:49:46.819Z,61.13
2023-03-11T01:52:33.024Z,60.99
2023-03-11T01:55:19.411Z,60.78
2023-03-11T01:58:08.421Z,60.93
2023-03-11T02:00:56.356Z,60.81
2023-03-11T02:03:42.706Z,61.01
2023-03-11T02:06:28.712Z,61.09
2023-03-11T02:09:14.561Z,60.92
2023-03-11T02:12:00.728Z,60.77
2023-03-11T02:14:49.299Z,60.78
2023-03-11T02:17:37.186Z,60.52
2023-03-11T02:20:33.359Z,60.82
2023-03-11T02:23:21.957Z,60.46
2023-03-11T02:26:13.429Z,61.00
2023-03-11T02:29:00.868Z,60.85
2023-03-11T02:31:47.612Z,60.83
2023-03-11T02:34:36.456Z,60.75
2023-03-11T02:37:22.568Z,60.74
2023-03-11T02:40:24.640Z,60.59
2023-03-11T02:43:16.544Z,60.98
2023-03-11T02:46:03.130Z,60.73
2023-03-11T02:48:49.893Z,60.72
2023-03-11T02:51:36.759Z,60.62
2023-03-11T02:54:22.562Z,60.37
2023-03-11T02:57:08.433Z,60.77
2023-03-11T02:59:54.393Z,60.76
2023-03-11T03:02:40.529Z,60.41
2023-03-11T03:05:26.759Z,60.59
2023-03-11T03:08:12.524Z,60.64
2023-03-11T03:11:00.115Z,60.41
2023-03-11T03:13:45.828Z,60.69
2023-03-11T03:16:31.783Z,60.88
2023-03-11T03:19:17.584Z,60.53
2023-03-11T03:22:04.788Z,60.70
2023-03-11T03:24:52.947Z,60.61
2023-03-11T03:27:39.337Z,60.79
2023-03-11T03:30:28.423Z,60.81
2023-03-11T03:33:14.768Z,60.80
2023-03-11T03:36:01.099Z,60.23
2023-03-11T03:38:56.424Z,60.56
2023-03-11T03:41:44.213Z,60.77
2023-03-11T03:44:30.764Z,60.68
2023-03-11T03:47:19.210Z,60.35
2023-03-11T03:50:07.420Z,60.74
2023-03-11T03:52:54.505Z,60.58
2023-03-11T03:55:41.860Z,60.44
2023-03-11T03:58:28.856Z,60.41
2023-03-11T04:01:15.772Z,60.24
2023-03-11T04:04:01.495Z,60.67
2023-03-11T04:06:48.589Z,60.80
2023-03-11T04:09:39.615Z,60.45
2023-03-11T04:12:25.797Z,60.31
2023-03-11T04:15:12.279Z,60.38
2023-03-11T04:18:00.595Z,60.24
2023-03-11T04:20:47.241Z,60.44
2023-03-11T04:23:34.184Z,60.47
2023-03-11T04:26:20.267Z,60.21
2023-03-11T04:29:06.211Z,60.25
2023-03-11T04:31:58.166Z,60.30
2023-03-11T04:34:44.052Z,60.53
2023-03-11T04:37:33.805Z,60.29
2023-03-11T04:40:20.308Z,59.99
2023-03-11T04:43:07.018Z,60.66
2023-03-11T04:45:53.442Z,60.37
2023-03-11T04:48:39.952Z,60.07
2023-03-11T04:51:26.926Z,59.98
2023-03-11T04:54:13.161Z,60.30
2023-03-11T04:56:59.129Z,60.07
2023-03-11T04:59:45.455Z,59.90
2023-03-11T05:02:33.298Z,59.71
2023-03-11T05:05:21.306Z,59.84
2023-03-11T05:08:07.956Z,60.19
2023-03-11T05:10:54.260Z,60.12
2023-03-11T05:13:41.681Z,60.18
2023-03-11T05:16:27.914Z,60.25
2023-03-11T05:19:32.101Z,60.03
2023-03-11T05:22:21.603Z,60.53
2023-03-11T05:25:08.519Z,59.83
2023-03-11T05:27:56.595Z,60.15
2023-03-11T05:30:42.342Z,59.98
2023-03-11T05:33:34.781Z,59.91
2023-03-11T05:36:21.408Z,60.07
2023-03-11T05:39:07.333Z,60.08
2023-03-11T05:41:56.750Z,59.89
2023-03-11T05:44:43.048Z,60.35
2023-03-11T05:47:28.994Z,60.49
2023-03-11T05:50:16.360Z,60.08
2023-03-11T05:53:04.750Z,60.45
2023-03-11T05:56:00.831Z,60.27
2023-03-11T05:58:47.766Z,60.06
2023-03-11T06:01:34.122Z,60.16
2023-03-11T06:04:20.310Z,60.17
2023-03-11T06:07:06.456Z,60.16
2023-03-11T06:09:55.532Z,60.02
2023-03-11T06:12:42.148Z,60.56
2023-03-11T06:15:37.700Z,60.31
2023-03-11T06:18:26.639Z,59.98
2023-03-11T06:21:19.074Z,60.09
2023-03-11T06:24:05.710Z,60.27
2023-03-11T06:26:52.945Z,60.40
2023-03-11T06:29:41.527Z,60.26
2023-03-11T06:32:29.761Z,60.47
2023-03-11T06:35:15.704Z,60.30
2023-03-11T06:38:01.730Z,60.23
2023-03-11T06:40:47.901Z,60.31
2023-03-11T06:43:34.767Z,60.17
2023-03-11T06:46:23.207Z,60.48
2023-03-11T06:49:10.571Z,60.44
2023-03-11T06:51:58.796Z,60.15
2023-03-11T06:54:44.541Z,60.59
2023-03-11T06:57:31.622Z,60.21
2023-03-11T07:00:21.203Z,60.34
2023-03-11T07:03:12.449Z,60.12
2023-03-11T07:05:58.895Z,60.09
2023-03-11T07:08:47.048Z,60.54
2023-03-11T07:11:33.113Z,60.53
2023-03-11T07:14:26.119Z,60.38
2023-03-11T07:17:15.541Z,60.69
2023-03-11T07:20:08.996Z,60.35
2023-03-11T07:22:54.999Z,60.51
2023-03-11T07:25:46.601Z,60.98
2023-03-11T07:28:32.845Z,60.45
2023-03-11T07:31:21.126Z,60.47
2023-03-11T07:34:11.442Z,60.46
2023-03-11T07:36:57.394Z,60.42
2023-03-11T07:39:43.301Z,60.28
2023-03-11T07:42:28.998Z,60.84
2023-03-11T07:45:17.765Z,60.29
2023-03-11T07:48:04.164Z,60.77
2023-03-11T07:50:50.349Z,60.97
2023-03-11T07:53:36.356Z,60.52
2023-03-11T07:56:27.457Z,60.85
2023-03-11T07:59:15.939Z,60.61
2023-03-11T08:02:04.120Z,60.41
2023-03-11T08:04:49.920Z,60.91
2023-03-11T08:07:36.196Z,60.75
2023-03-11T08:10:22.050Z,60.77
2023-03-11T08:13:08.429Z,60.84
2023-03-11T08:15:54.668Z,60.64
2023-03-11T08:18:42.036Z,60.72
2023-03-11T08:21:34.930Z,60.85
2023-03-11T08:24:20.633Z,60.56
2023-03-11T08:27:06.584Z,60.79
2023-03-11T08:29:52.454Z,60.59
2023-03-11T08:32:38.791Z,60.79
2023-03-11T08:35:26.217Z,60.40
2023-03-11T08:38:12.405Z,60.25
2023-03-11T08:40:58.330Z,60.25
2023-03-11T08:43:44.685Z,60.22
2023-03-11T08:46:33.572Z,59.91
2023-03-11T08:49:29.288Z,59.70
2023-03-11T08:52:15.094Z,60.02
2023-03-11T08:55:01.038Z,59.96
2023-03-11T08:57:46.773Z,59.89
2023-03-11T09:00:32.868Z,59.57
2023-03-11T09:03:18.659Z,59.42
2023-03-11T09:06:07.156Z,59.73
2023-03-11T09:08:53.007Z,59.37
2023-03-11T09:11:39.324Z,59.44
2023-03-11T09:14:25.176Z,59.25
2023-03-11T09:17:12.186Z,59.10
2023-03-11T09:19:58.043Z,58.84
2023-03-11T09:22:44.026Z,59.01
2023-03-11T09:25:30.035Z,58.64
2023-03-11T09:28:16.054Z,58.88
2023-03-11T09:31:01.872Z,58.63
2023-03-11T09:33:48.074Z,58.79
2023-03-11T09:36:34.097Z,58.64
2023-03-11T09:39:21.247Z,59.06
2023-03-11T09:42:15.525Z,58.78
2023-03-11T09:45:17.809Z,57.76
2023-03-11T09:48:07.744Z,58.04
2023-03-11T09:51:18.118Z,57.98
2023-03-11T09:54:05.875Z,57.65
2023-03-11T09:56:51.885Z,57.57
2023-03-11T09:59:40.007Z,57.88
2023-03-11T10:02:27.741Z,57.98
2023-03-11T10:05:22.229Z,57.89
2023-03-11T10:08:28.316Z,58.10
2023-03-11T10:11:19.602Z,57.61
2023-03-11T10:14:14.489Z,57.73
2023-03-11T10:17:37.533Z,57.71
2023-03-11T10:20:29.641Z,58.69
2023-03-11T10:23:26.457Z,57.43
2023-03-11T10:26:15.611Z,57.45
2023-03-11T10:29:18.339Z,57.54
2023-03-11T10:32:19.394Z,57.51
2023-03-11T10:35:21.195Z,57.40
2023-03-11T10:38:26.698Z,57.25
2023-03-11T10:41:42.848Z,57.25
2023-03-11T10:44:31.414Z,57.28
2023-03-11T10:47:25.588Z,56.67
2023-03-11T10:50:21.105Z,56.61
2023-03-11T10:53:15.374Z,56.65
2023-03-11T10:56:01.226Z,56.79
2023-03-11T10:58:50.458Z,56.79
2023-03-11T11:01:36.835Z,56.19
2023-03-11T11:04:36.312Z,56.18
2023-03-11T11:07:29.709Z,56.08
2023-03-11T11:10:19.097Z,56.33
2023-03-11T11:13:08.221Z,56.47
2023-03-11T11:16:20.972Z,56.23
2023-03-11T11:19:15.283Z,55.51
2023-03-11T11:22:04.518Z,56.14
2023-03-11T11:24:52.231Z,55.93
2023-03-11T11:27:37.890Z,56.00
2023-03-11T11:30:24.739Z,56.13
2023-03-11T11:33:28.897Z,56.08
2023-03-11T11:36:16.438Z,56.12
2023-03-11T11:39:05.111Z,55.35
2023-03-11T11:41:51.136Z,55.69
2023-03-11T11:44:37.151Z,55.66
2023-03-11T11:47:33.857Z,55.52
2023-03-11T11:50:26.716Z,55.21
2023-03-11T11:53:33.043Z,54.52
2023-03-11T11:56:18.901Z,54.31
2023-03-11T11:59:13.692Z,46.21
2023-03-11T12:01:59.350Z,48.94
2023-03-11T12:04:56.164Z,52.90
2023-03-11T12:08:15.980Z,45.89
2023-03-11T12:11:05.101Z,51.85
2023-03-11T12:14:00.287Z,51.36
2023-03-11T12:16:52.396Z,52.35
2023-03-11T12:19:58.157Z,52.18
2023-03-11T12:23:02.429Z,50.36
2023-03-11T12:26:19.175Z,51.70
2023-03-11T12:29:29.008Z,52.13
2023-03-11T12:32:35.189Z,52.62
2023-03-11T12:35:27.828Z,52.86
2023-03-11T12:38:19.108Z,52.54
2023-03-11T12:41:14.113Z,52.77
2023-03-11T12:44:02.356Z,52.66
2023-03-11T12:46:54.728Z,52.32
2023-03-11T12:49:45.563Z,52.80
2023-03-11T12:52:53.101Z,51.53
2023-03-11T12:55:40.162Z,53.50
2023-03-11T12:58:47.589Z,52.03
2023-03-11T13:02:16.605Z,51.66
2023-03-11T13:05:33.181Z,51.60
2023-03-11T13:08:34.215Z,51.37
2023-03-11T13:11:32.460Z,51.05
2023-03-11T13:14:31.320Z,50.31
2023-03-11T13:17:25.722Z,50.08
2023-03-11T13:20:42.873Z,50.55
2023-03-11T13:23:40.527Z,50.69
2023-03-11T13:26:34.517Z,50.80
2023-03-11T13:29:38.937Z,50.56
2023-03-11T13:32:27.888Z,50.91
2023-03-11T13:35:32.790Z,50.74
2023-03-11T13:38:40.797Z,50.61
2023-03-11T13:41:32.130Z,50.37
2023-03-11T13:44:24.285Z,50.77
2023-03-11T13:47:15.082Z,50.10
2023-03-11T13:50:27.257Z,50.62
2023-03-11T13:53:36.750Z,51.36
2023-03-11T13:56:26.827Z,51.10
2023-03-11T13:59:27.436Z,50.89
2023-03-11T14:02:21.845Z,51.18
2023-03-11T14:05:15.568Z,50.89
2023-03-11T14:08:20.607Z,51.25
2023-03-11T14:11:12.602Z,51.19
2023-03-11T14:13:58.363Z,51.23
2023-03-11T14:16:45.188Z,51.05
2023-03-11T14:19:31.357Z,51.61
2023-03-11T14:22:17.411Z,51.30
2023-03-11T14:25:08.628Z,51.17
2023-03-11T14:27:57.582Z,50.82
2023-03-11T14:30:55.574Z,51.57
2023-03-11T14:33:41.608Z,50.77
2023-03-11T14:36:27.393Z,50.61
2023-03-11T14:39:40.026Z,50.87
2023-03-11T14:42:35.543Z,51.49
2023-03-11T14:45:24.201Z,50.80
2023-03-11T14:48:23.886Z,51.16
2023-03-11T14:51:31.677Z,50.99
2023-03-11T14:54:24.551Z,51.09
2023-03-11T14:57:44.184Z,50.78
2023-03-11T15:00:50.835Z,51.06
2023-03-11T15:03:40.325Z,51.30
2023-03-11T15:06:28.635Z,51.77
2023-03-11T15:09:23.612Z,51.68
2023-03-11T15:12:36.025Z,51.76
2023-03-11T15:15:28.851Z,51.53
2023-03-11T15:18:24.678Z,51.75
2023-03-11T15:21:15.525Z,51.71
2023-03-11T15:24:05.304Z,51.51
2023-03-11T15:26:55.592Z,51.78
2023-03-11T15:29:50.902Z,51.13
2023-03-11T15:32:44.209Z,51.63
2023-03-11T15:35:31.150Z,51.68
2023-03-11T15:38:25.531Z,51.46
2023-03-11T15:41:11.564Z,51.53
2023-03-11T15:44:02.088Z,51.73
2023-03-11T15:46:48.269Z,51.54
2023-03-11T15:49:44.036Z,51.74
2023-03-11T15:52:29.910Z,51.54
2023-03-11T15:55:16.310Z,51.29
2023-03-11T15:58:08.069Z,51.57
2023-03-11T16:00:56.606Z,51.22
2023-03-11T16:03:42.753Z,51.40
2023-03-11T16:06:28.663Z,51.16
2023-03-11T16:09:15.856Z,51.50
2023-03-11T16:12:02.752Z,51.63
2023-03-11T16:14:49.982Z,51.48
2023-03-11T16:17:48.878Z,51.63
2023-03-11T16:20:48.407Z,51.36
2023-03-11T16:23:50.313Z,50.83
2023-03-11T16:26:36.973Z,51.66
2023-03-11T16:29:23.816Z,51.13
2023-03-11T16:32:10.644Z,50.74
2023-03-11T16:34:56.478Z,51.10
2023-03-11T16:37:43.483Z,51.05
2023-03-11T16:40:29.595Z,50.56
2023-03-11T16:43:15.815Z,50.50
2023-03-11T16:46:01.826Z,50.65
2023-03-11T16:48:47.899Z,50.47
2023-03-11T16:51:34.504Z,50.31
2023-03-11T16:54:20.331Z,50.68
2023-03-11T16:57:06.330Z,50.75
2023-03-11T16:59:52.571Z,50.20
2023-03-11T17:02:38.839Z,50.06
2023-03-11T17:05:24.899Z,50.17
2023-03-11T17:08:11.506Z,50.40
2023-03-11T17:10:58.147Z,50.06
2023-03-11T17:13:44.100Z,50.10
2023-03-11T17:16:30.071Z,49.88
2023-03-11T17:19:16.074Z,50.17
2023-03-11T17:22:02.334Z,49.51
2023-03-11T17:24:48.279Z,49.52
2023-03-11T17:27:34.178Z,49.80
2023-03-11T17:30:35.671Z,49.84
2023-03-11T17:33:22.623Z,49.88
2023-03-11T17:36:09.991Z,49.81
2023-03-11T17:38:56.127Z,50.08
2023-03-11T17:41:41.924Z,49.78
2023-03-11T17:44:30.082Z,49.58
2023-03-11T17:47:20.143Z,49.78
2023-03-11T17:50:06.882Z,49.41
2023-03-11T17:52:53.647Z,50.18
2023-03-11T17:55:40.649Z,49.86
2023-03-11T17:58:26.781Z,49.85
2023-03-11T18:01:15.351Z,50.08
2023-03-11T18:04:01.914Z,49.87
2023-03-11T18:06:48.220Z,49.76
2023-03-11T18:09:34.044Z,50.33
2023-03-11T18:12:20.783Z,50.42
2023-03-11T18:15:11.992Z,50.15
2023-03-11T18:17:58.292Z,50.17
2023-03-11T18:20:44.335Z,50.28
2023-03-11T18:23:33.058Z,50.33
2023-03-11T18:26:19.882Z,50.22
2023-03-11T18:29:06.052Z,50.11
2023-03-11T18:31:51.892Z,50.15
2023-03-11T18:34:37.910Z,51.07
2023-03-11T18:37:25.048Z,50.76
2023-03-11T18:40:12.023Z,50.03
2023-03-11T18:42:58.513Z,50.01
2023-03-11T18:45:44.380Z,49.93
2023-03-11T18:48:30.347Z,50.41
2023-03-11T18:51:16.595Z,50.41
2023-03-11T18:54:02.947Z,50.33
2023-03-11T18:56:50.288Z,50.32
2023-03-11T18:59:36.586Z,50.45
2023-03-11T19:02:22.757Z,50.30
2023-03-11T19:05:08.884Z,50.70
2023-03-11T19:07:54.999Z,50.55
2023-03-11T19:10:42.692Z,49.91
2023-03-11T19:13:40.722Z,50.47
2023-03-11T19:16:32.121Z,50.30
2023-03-11T19:19:18.801Z,50.54
2023-03-11T19:22:05.693Z,50.01
2023-03-11T19:24:53.777Z,50.49
2023-03-11T19:27:40.284Z,50.25
2023-03-11T19:30:26.830Z,50.20
2023-03-11T19:33:12.850Z,50.67
2023-03-11T19:36:00.740Z,50.35
2023-03-11T19:38:47.762Z,50.73
2023-03-11T19:41:34.031Z,50.42
2023-03-11T19:44:20.033Z,50.64
2023-03-11T19:47:08.778Z,50.25
2023-03-11T19:49:55.168Z,50.25
2023-03-11T19:52:41.008Z,50.63
2023-03-11T19:55:27.302Z,50.38
2023-03-11T19:58:14.409Z,50.41
2023-03-11T20:01:00.820Z,51.00
2023-03-11T20:03:47.164Z,49.97
2023-03-11T20:06:33.276Z,50.03
2023-03-11T20:09:20.481Z,50.42
2023-03-11T20:12:06.582Z,50.05
2023-03-11T20:14:52.870Z,50.15
2023-03-11T20:17:38.782Z,50.18
2023-03-11T20:20:24.826Z,50.03
2023-03-11T20:23:11.642Z,50.37
2023-03-11T20:25:57.500Z,50.17
2023-03-11T20:28:44.012Z,50.09
2023-03-11T20:31:30.438Z,50.44
2023-03-11T20:34:16.649Z,49.94
2023-03-11T20:37:03.016Z,50.17
2023-03-11T20:39:48.870Z,50.11
2023-03-11T20:42:35.732Z,50.29
2023-03-11T20:45:22.048Z,50.30
2023-03-11T20:48:08.652Z,50.35
2023-03-11T20:50:54.399Z,50.52
2023-03-11T20:53:40.595Z,50.56
2023-03-11T20:56:26.880Z,50.02
2023-03-11T20:59:14.263Z,49.91
2023-03-11T21:02:00.379Z,50.55
2023-03-11T21:04:47.951Z,50.01
2023-03-11T21:07:34.332Z,50.48
2023-03-11T21:10:20.561Z,50.87
2023-03-11T21:13:07.265Z,50.04
2023-03-11T21:15:56.397Z,50.61
2023-03-11T21:18:44.324Z,49.93
2023-03-11T21:21:30.301Z,49.96
2023-03-11T21:24:16.488Z,50.33
2023-03-11T21:27:02.820Z,50.18
2023-03-11T21:29:49.322Z,50.15
2023-03-11T21:32:35.673Z,49.96
2023-03-11T21:35:21.968Z,49.86
2023-03-11T21:38:07.764Z,50.30
2023-03-11T21:40:54.625Z,50.59
2023-03-11T21:43:41.892Z,50.12
2023-03-11T21:46:30.058Z,50.22
2023-03-11T21:49:16.049Z,50.11
2023-03-11T21:52:02.647Z,50.11
2023-03-11T21:54:48.650Z,49.64
2023-03-11T21:57:34.584Z,50.06
2023-03-11T22:00:21.359Z,50.27
2023-03-11T22:03:07.266Z,50.94
2023-03-11T22:06:00.497Z,50.59
2023-03-11T22:08:46.813Z,50.25
2023-03-11T22:11:33.175Z,49.90
2023-03-11T22:14:19.119Z,50.07
2023-03-11T22:17:05.038Z,49.86
2023-03-11T22:19:50.881Z,50.24
2023-03-11T22:22:36.884Z,49.91
2023-03-11T22:25:22.894Z,50.24
2023-03-11T22:28:12.158Z,50.06
2023-03-11T22:30:57.963Z,50.21
2023-03-11T22:33:43.974Z,49.90
2023-03-11T22:36:29.865Z,50.08
2023-03-11T22:39:15.554Z,49.95
2023-03-11T22:42:02.176Z,50.04
2023-03-11T22:44:48.356Z,49.70
2023-03-11T22:47:34.140Z,49.69
2023-03-11T22:50:20.158Z,49.67
2023-03-11T22:53:06.070Z,49.94
2023-03-11T22:55:52.388Z,50.02
2023-03-11T22:58:38.687Z,49.58
2023-03-11T23:01:24.770Z,49.94
2023-03-11T23:04:10.986Z,49.82
2023-03-11T23:06:56.696Z,49.98
2023-03-11T23:09:43.081Z,49.71
2023-03-11T23:12:28.907Z,49.60
2023-03-11T23:15:17.685Z,50.18
2023-03-11T23:18:03.468Z,49.63
2023-03-11T23:20:49.515Z,49.83
2023-03-11T23:23:35.276Z,49.53
2023-03-11T23:26:22.056Z,50.08
2023-03-11T23:29:07.893Z,49.60
2023-03-11T23:31:53.735Z,50.02
2023-03-11T23:34:39.538Z,49.92
2023-03-11T23:37:25.335Z,49.50
2023-03-11T23:40:11.501Z,49.66
2023-03-11T23:42:57.422Z,49.77
2023-03-11T23:45:43.245Z,50.02
2023-03-11T23:48:29.221Z,49.80
2023-03-11T23:51:15.197Z,49.91
2023-03-11T23:54:01.017Z,49.79
2023-03-11T23:56:46.915Z,49.80
2023-03-11T23:59:32.877Z,50.22
